Niles, Illinois
Current Conditions -  °F | °C
As of 3:51 AM on Tuesday 21 Oct 2014 (Local Time) from KORD Reporting Station
Overcast Overcast  
Wind Chill: 50°   Ceiling: 4900
Heat Index: 50°   Visibility: 10mi
Dew Point: 40°   Wind: 10mph
Humidity: 68%   Direction: 360°N
Pressure: 30.02"   Gusts: NA
Location:  42.02°N, 87.8°W
Report Text: KORD 210851Z 36009KT 10SM FEW025 OVC049 10/04 A3002 RMK AO2 SLP167 T01000044 51008 $
Loading
Personal Weather Stations






























Interactive Weather Map New forecast layout! Learn more

10-Day Weather Forecast

Advertisements
Track Severe Weather on mobile